Terminal Aerodrome Forecast
Issued by NWS Mobile, AL

Home | Current Version | Previous Version | Text Only | Print | Product List | Glossary On
Versions: 1 2 3 4 5 6 7 8 9 10 11 12 13 14 15 16 17 18 19 20 21 22 23 24 25 26
000
FTUS44 KMOB 301120
TAFMOB
TAF
KMOB 301120Z 3012/3112 00000KT P6SM FEW020 SCT250
     FM301500 25003KT P6SM VCTS SCT030CB SCT250
      TEMPO 3017/3020 VRB25KT 2SM TSRA BKN010CB
     FM310000 21007KT P6SM SCT250=

USA.gov is the U.S. government's official web portal to all federal, state and local government web resources and services.